Time;durP1;ratioP1;P1;durP2;ratioP2;P2;SDS_P1;SDS_P2;PMS_P1;PMS_P2;Temp;Humidity;BMP_temperature;BMP_pressure;BME280_temperature;BME280_humidity;BME280_pressure;Samples;Min_cycle;Max_cycle;Signal;HPM_P1;HPM_P2
2022/01/14 00:01:49;;;;;;;29.27;20.73;;;2.10;82.90;;;;;;5035245;28;20448;-85
2022/01/14 00:04:16;;;;;;;26.63;20.50;;;2.10;82.90;;;;;;5035469;28;20057;-85
2022/01/14 00:06:44;;;;;;;33.63;21.65;;;2.10;82.90;;;;;;5034435;28;20273;-85
2022/01/14 00:09:12;;;;;;;28.63;20.58;;;2.10;82.90;;;;;;5066666;28;20049;-85
2022/01/14 00:11:45;;;;;;;28.15;20.95;;;2.00;82.90;;;;;;5035085;28;20041;-85
2022/01/14 00:16:43;;;;;;;30.38;20.70;;;2.00;82.90;;;;;;5034665;28;20045;-85
2022/01/14 00:19:10;;;;;;;27.17;19.38;;;2.00;82.90;;;;;;5034738;28;20049;-85
2022/01/14 00:21:40;;;;;;;26.08;20.02;;;2.00;82.90;;;;;;5034287;28;20059;-85
2022/01/14 00:32:13;;;;;;;29.25;20.58;;;2.00;82.80;;;;;;5034374;28;20046;-85
2022/01/14 00:34:40;;;;;;;33.15;21.45;;;2.00;82.80;;;;;;5066659;28;20041;-85
2022/01/14 00:37:07;;;;;;;34.42;22.23;;;2.00;82.80;;;;;;5033846;28;20050;-85
2022/01/14 00:39:34;;;;;;;32.08;21.10;;;2.00;82.80;;;;;;5034166;28;20045;-85
2022/01/14 00:42:02;;;;;;;31.00;21.65;;;1.90;82.80;;;;;;5066115;28;20041;-85
2022/01/14 00:44:29;;;;;;;28.92;20.70;;;1.90;82.80;;;;;;5034370;28;20048;-84
2022/01/14 00:46:56;;;;;;;28.30;20.40;;;1.90;82.80;;;;;;5034128;28;20045;-85
2022/01/14 00:49:24;;;;;;;24.80;19.85;;;1.90;82.80;;;;;;5034513;28;20049;-85
2022/01/14 00:51:51;;;;;;;34.58;21.50;;;1.90;82.80;;;;;;5033667;28;20513;-85
2022/01/14 00:54:18;;;;;;;31.58;21.40;;;1.90;82.80;;;;;;5034003;28;20056;-85
2022/01/14 00:56:49;;;;;;;34.28;22.30;;;1.90;82.80;;;;;;5033422;28;20054;-85
2022/01/14 00:59:17;;;;;;;29.45;20.15;;;1.90;82.80;;;;;;5034115;28;20041;-85
2022/01/14 01:01:53;;;;;;;32.17;20.77;;;1.90;82.80;;;;;;5033813;28;20037;-85
2022/01/14 01:04:29;;;;;;;31.05;21.02;;;1.90;82.80;;;;;;5034249;28;20049;-85
2022/01/14 01:06:57;;;;;;;30.13;20.90;;;1.90;82.80;;;;;;5029400;28;20124;-85
2022/01/14 01:09:26;;;;;;;28.13;19.67;;;1.90;82.80;;;;;;5035379;28;20524;-85
2022/01/14 01:12:13;;;;;;;25.13;19.20;;;1.90;82.80;;;;;;5034165;28;20045;-85
2022/01/14 01:17:16;;;;;;;27.27;19.80;;;1.80;82.80;;;;;;5033793;28;20045;-85
2022/01/14 01:19:44;;;;;;;32.20;21.23;;;1.80;82.80;;;;;;5033733;28;20506;-85
2022/01/14 01:22:11;;;;;;;27.35;19.65;;;1.80;82.80;;;;;;5033694;28;20045;-85
2022/01/14 01:24:38;;;;;;;31.48;20.63;;;1.80;82.80;;;;;;5033151;28;20068;-85
2022/01/14 01:27:08;;;;;;;29.13;20.13;;;1.80;82.80;;;;;;5033407;28;20037;-85
2022/01/14 01:32:06;;;;;;;35.00;20.65;;;1.70;82.80;;;;;;5033416;28;20099;-85
2022/01/14 01:34:34;;;;;;;30.05;20.90;;;1.70;82.80;;;;;;5033627;28;20088;-86
2022/01/14 01:37:03;;;;;;;30.92;21.40;;;1.70;82.80;;;;;;5032891;28;20053;-85
2022/01/14 01:39:34;;;;;;;34.78;22.13;;;1.70;82.80;;;;;;5033329;28;20383;-86
2022/01/14 01:42:10;;;;;;;28.30;21.20;;;1.70;82.80;;;;;;5033459;28;20418;-86
2022/01/14 01:44:40;;;;;;;29.58;20.05;;;1.70;82.80;;;;;;5033047;28;20046;-86
2022/01/14 01:47:07;;;;;;;31.98;21.40;;;1.70;82.80;;;;;;5033368;28;20513;-85
2022/01/14 01:49:36;;;;;;;29.05;19.83;;;1.70;82.80;;;;;;5033324;28;20047;-86
2022/01/14 01:52:05;;;;;;;28.98;19.80;;;1.70;82.80;;;;;;5032454;28;20056;-86
2022/01/14 01:54:32;;;;;;;27.75;20.25;;;1.70;82.80;;;;;;5033907;28;20053;-86
2022/01/14 01:56:59;;;;;;;34.85;20.33;;;1.60;82.80;;;;;;5033047;28;20042;-86
2022/01/14 01:59:27;;;;;;;29.75;20.05;;;1.70;82.80;;;;;;5032754;28;20298;-87
2022/01/14 02:01:57;;;;;;;27.63;20.45;;;1.70;82.80;;;;;;5033182;28;20045;-87
2022/01/14 02:04:25;;;;;;;28.52;20.40;;;1.60;82.80;;;;;;5033194;28;20038;-86
2022/01/14 02:06:54;;;;;;;26.13;20.38;;;1.70;82.80;;;;;;5032275;28;20052;-86
2022/01/14 02:09:22;;;;;;;31.48;21.70;;;1.70;82.80;;;;;;5032747;28;20056;-86
2022/01/14 02:11:50;;;;;;;31.55;21.58;;;1.60;82.80;;;;;;5032926;28;20051;-86
2022/01/14 02:14:41;;;;;;;29.48;20.17;;;1.60;82.80;;;;;;5032638;28;20046;-86
2022/01/14 02:22:55;;;;;;;29.48;20.33;;;1.60;82.80;;;;;;5020802;28;20038;-87
2022/01/14 02:25:30;;;;;;;29.10;21.33;;;1.60;82.80;;;;;;5033223;28;20046;-86
2022/01/14 02:28:13;;;;;;;28.65;19.90;;;1.60;82.80;;;;;;5027873;28;20056;-86
2022/01/14 02:30:43;;;;;;;31.65;21.27;;;1.60;82.80;;;;;;5030344;28;20050;-86
2022/01/14 02:33:11;;;;;;;28.83;20.50;;;1.60;82.80;;;;;;5032769;28;20044;-86
2022/01/14 02:35:40;;;;;;;30.88;21.35;;;1.60;82.80;;;;;;5032984;28;20050;-86
2022/01/14 02:38:10;;;;;;;34.47;21.05;;;1.60;82.80;;;;;;5032607;28;20045;-87
2022/01/14 02:40:38;;;;;;;30.52;20.63;;;1.50;82.80;;;;;;5032885;28;20055;-87
2022/01/14 02:43:11;;;;;;;28.25;20.30;;;1.50;82.80;;;;;;5031651;28;20057;-86
2022/01/14 02:45:40;;;;;;;29.30;20.67;;;1.50;82.80;;;;;;5029952;28;20046;-86
2022/01/14 02:48:07;;;;;;;29.13;20.17;;;1.50;82.80;;;;;;5031391;28;20057;-86
2022/01/14 02:51:11;;;;;;;29.02;20.85;;;1.50;82.80;;;;;;5032428;28;20060;-87
2022/01/14 02:53:42;;;;;;;28.95;20.05;;;1.50;82.80;;;;;;5033335;28;20047;-86
2022/01/14 02:56:28;;;;;;;31.05;21.48;;;1.50;82.80;;;;;;5032263;28;20053;-86
2022/01/14 02:58:57;;;;;;;34.50;22.08;;;1.50;82.80;;;;;;5032683;28;20403;-86
2022/01/14 03:01:25;;;;;;;28.65;20.50;;;1.50;82.80;;;;;;5032674;28;20048;-87
2022/01/14 03:03:58;;;;;;;31.88;20.08;;;1.50;82.80;;;;;;5031797;28;20050;-88
2022/01/14 03:06:26;;;;;;;32.80;21.42;;;1.50;82.80;;;;;;5034155;28;20045;-88
2022/01/14 03:08:53;;;;;;;30.10;21.63;;;1.50;82.80;;;;;;5032258;28;20059;-87
2022/01/14 03:11:28;;;;;;;32.20;21.92;;;1.50;82.80;;;;;;5064102;28;20056;-87
2022/01/14 03:13:56;;;;;;;30.48;21.10;;;1.50;82.80;;;;;;5032593;28;20041;-87
2022/01/14 03:16:24;;;;;;;28.98;22.00;;;1.50;82.90;;;;;;5032571;28;20041;-87
2022/01/14 03:18:53;;;;;;;34.15;20.63;;;1.50;82.90;;;;;;5033008;28;20053;-87
2022/01/14 03:21:29;;;;;;;28.27;20.90;;;1.50;82.90;;;;;;5035983;28;20053;-87
2022/01/14 03:24:13;;;;;;;31.92;22.05;;;1.40;82.90;;;;;;5035923;28;20510;-87
2022/01/14 03:26:42;;;;;;;29.70;20.67;;;1.40;82.90;;;;;;5067140;28;20041;-87
2022/01/14 03:29:09;;;;;;;34.45;23.95;;;1.40;82.90;;;;;;5035727;28;20049;-85
2022/01/14 03:31:35;;;;;;;36.80;23.52;;;1.40;82.90;;;;;;5035951;28;20041;-87
2022/01/14 03:34:02;;;;;;;35.47;23.40;;;1.40;82.90;;;;;;5034963;28;20046;-86
2022/01/14 03:36:29;;;;;;;41.47;23.77;;;1.40;82.90;;;;;;5034848;28;20072;-86
2022/01/14 03:38:56;;;;;;;35.58;23.02;;;1.40;82.90;;;;;;5035552;28;20410;-87
2022/01/14 03:41:24;;;;;;;42.55;24.77;;;1.40;82.90;;;;;;5035212;28;20041;-88
2022/01/14 03:43:51;;;;;;;36.38;23.77;;;1.40;82.80;;;;;;5035696;28;20391;-88
2022/01/14 03:46:18;;;;;;;41.15;23.77;;;1.40;82.90;;;;;;5035625;28;20056;-87
2022/01/14 03:48:45;;;;;;;39.63;23.55;;;1.40;82.90;;;;;;5034693;28;20049;-88
2022/01/14 03:51:12;;;;;;;41.85;27.15;;;1.40;82.90;;;;;;5035268;28;20049;-87
2022/01/14 03:53:40;;;;;;;39.22;24.38;;;1.40;82.90;;;;;;5035384;28;20045;-88
2022/01/14 03:56:08;;;;;;;41.08;26.48;;;1.40;82.90;;;;;;5035001;28;20536;-87
2022/01/14 03:58:39;;;;;;;41.65;26.23;;;1.40;82.90;;;;;;5035289;28;20041;-87
2022/01/14 04:01:07;;;;;;;40.13;26.92;;;1.40;82.90;;;;;;5034577;28;20045;-87
2022/01/14 04:03:34;;;;;;;43.08;27.20;;;1.40;82.90;;;;;;5034826;28;20049;-87
2022/01/14 04:06:03;;;;;;;44.13;25.83;;;1.40;82.90;;;;;;5036349;28;20055;-86
2022/01/14 04:08:30;;;;;;;39.65;26.42;;;1.40;82.90;;;;;;5034339;28;20053;-87
2022/01/14 04:11:00;;;;;;;40.17;26.67;;;1.40;82.90;;;;;;5035140;28;20047;-86
2022/01/14 04:13:46;;;;;;;42.20;26.48;;;1.40;82.90;;;;;;5019459;28;20159;-87
2022/01/14 04:16:15;;;;;;;42.63;27.60;;;1.30;82.90;;;;;;5033295;28;20057;-87
2022/01/14 04:18:42;;;;;;;42.92;26.40;;;1.30;82.90;;;;;;5034152;28;20061;-87
2022/01/14 04:21:09;;;;;;;42.60;27.10;;;1.30;82.80;;;;;;5034835;28;20115;-88
2022/01/14 04:23:36;;;;;;;42.35;27.38;;;1.30;82.80;;;;;;5034625;28;20410;-89
2022/01/14 04:26:03;;;;;;;45.88;28.63;;;1.30;82.80;;;;;;5034735;28;20046;-88
2022/01/14 04:28:34;;;;;;;48.50;28.92;;;1.30;82.90;;;;;;5034658;28;20041;-88
2022/01/14 04:31:02;;;;;;;45.25;29.63;;;1.30;82.80;;;;;;5033817;28;20057;-88
2022/01/14 04:33:31;;;;;;;41.90;28.40;;;1.30;82.80;;;;;;5034665;28;20060;-88
2022/01/14 04:35:59;;;;;;;43.95;29.88;;;1.30;82.80;;;;;;5034626;28;20053;-87
2022/01/14 04:38:27;;;;;;;43.28;28.85;;;1.20;82.80;;;;;;5034152;28;20038;-87
2022/01/14 04:40:55;;;;;;;44.80;31.08;;;1.30;82.80;;;;;;5034693;28;20486;-87
2022/01/14 04:43:22;;;;;;;43.80;29.63;;;1.20;82.80;;;;;;5034573;28;20046;-88
2022/01/14 04:48:28;;;;;;;51.80;31.90;;;1.20;82.90;;;;;;5033892;28;20125;-88
2022/01/14 04:50:55;;;;;;;50.55;31.33;;;1.20;82.90;;;;;;5034278;28;20050;-86
2022/01/14 04:53:23;;;;;;;46.95;31.25;;;1.20;82.80;;;;;;5033949;28;20051;-88
2022/01/14 04:55:50;;;;;;;50.42;32.60;;;1.20;82.90;;;;;;5034422;28;20065;-88
2022/01/14 04:58:18;;;;;;;44.58;30.35;;;1.20;82.90;;;;;;5034238;28;20411;-88
2022/01/14 05:00:45;;;;;;;46.97;31.42;;;1.20;82.90;;;;;;5032307;28;20049;-88
2022/01/14 05:03:12;;;;;;;48.45;32.75;;;1.20;82.90;;;;;;5066030;28;20506;-87
2022/01/14 05:05:43;;;;;;;44.90;30.40;;;1.10;82.80;;;;;;5033934;28;20049;-87
2022/01/14 05:08:18;;;;;;;44.50;30.88;;;1.10;82.80;;;;;;5033362;28;20057;-88
2022/01/14 05:13:24;;;;;;;43.28;30.10;;;1.10;82.80;;;;;;5034053;28;20053;-88
2022/01/14 05:15:55;;;;;;;44.25;31.88;;;1.10;82.80;;;;;;5033085;28;20053;-88
2022/01/14 05:18:23;;;;;;;43.17;31.85;;;1.10;82.80;;;;;;5033764;28;20053;-88
2022/01/14 05:20:53;;;;;;;44.75;34.05;;;1.10;82.80;;;;;;5033315;28;20052;-88
2022/01/14 05:23:20;;;;;;;46.55;32.30;;;1.10;82.80;;;;;;5033667;28;20515;-87
2022/01/14 05:25:47;;;;;;;45.03;31.88;;;1.10;82.80;;;;;;5033786;28;20056;-89
2022/01/14 05:28:15;;;;;;;47.78;32.28;;;1.10;82.80;;;;;;5033655;28;20041;-89
2022/01/14 05:30:42;;;;;;;45.42;30.50;;;1.00;82.80;;;;;;5032960;28;20157;-89
2022/01/14 05:33:09;;;;;;;46.88;33.08;;;1.00;82.80;;;;;;5033603;28;20128;-88
2022/01/14 05:35:36;;;;;;;49.42;32.28;;;1.00;82.80;;;;;;5067591;28;20051;-88
2022/01/14 05:38:03;;;;;;;44.22;32.20;;;1.00;82.80;;;;;;5033436;28;20527;-88
2022/01/14 05:40:30;;;;;;;43.00;31.13;;;1.00;82.80;;;;;;5032358;28;20421;-89
2022/01/14 05:42:59;;;;;;;45.47;32.90;;;1.00;82.80;;;;;;5032547;28;20045;-89
2022/01/14 05:45:27;;;;;;;45.35;32.13;;;1.00;82.80;;;;;;5034877;28;20469;-89
2022/01/14 05:47:54;;;;;;;48.72;32.33;;;1.00;82.80;;;;;;5033423;28;20075;-88
2022/01/14 05:50:24;;;;;;;45.08;32.63;;;1.00;82.80;;;;;;5033067;28;20045;-89
2022/01/14 05:52:52;;;;;;;47.08;32.15;;;1.00;82.80;;;;;;5033473;28;20051;-88
2022/01/14 05:55:21;;;;;;;48.67;33.45;;;1.00;82.70;;;;;;5033603;28;20144;-89
2022/01/14 05:57:48;;;;;;;44.90;31.45;;;1.00;82.80;;;;;;5032698;28;20063;-89
2022/01/14 06:00:18;;;;;;;50.47;34.35;;;0.90;82.70;;;;;;5033474;28;20136;-89
2022/01/14 06:02:47;;;;;;;53.25;34.03;;;0.90;82.70;;;;;;5033314;28;20046;-89
2022/01/14 06:05:14;;;;;;;49.17;32.90;;;0.90;82.80;;;;;;5033106;28;20128;-91
2022/01/14 06:07:41;;;;;;;45.78;32.92;;;0.90;82.80;;;;;;5033084;28;20045;-90
2022/01/14 06:10:09;;;;;;;48.63;33.90;;;0.90;82.80;;;;;;5032669;28;20064;-92
2022/01/14 06:12:37;;;;;;;52.65;33.63;;;0.90;82.80;;;;;;5032688;28;20045;-89
2022/01/14 06:15:05;;;;;;;46.83;32.38;;;0.90;82.80;;;;;;5034877;28;20494;-89
2022/01/14 06:17:33;;;;;;;51.05;33.42;;;0.90;82.70;;;;;;5033149;28;20042;-90
2022/01/14 06:20:00;;;;;;;50.10;33.97;;;0.90;82.80;;;;;;5033020;28;20052;-90
2022/01/14 06:22:27;;;;;;;54.10;35.08;;;0.90;82.80;;;;;;5017422;28;20040;-90
2022/01/14 06:24:56;;;;;;;55.05;34.97;;;0.90;82.80;;;;;;5031285;28;20406;-89
2022/01/14 06:27:23;;;;;;;51.05;34.30;;;0.90;82.80;;;;;;5034618;28;20049;-89
2022/01/14 06:29:51;;;;;;;50.28;33.17;;;0.90;82.80;;;;;;5032978;28;20502;-90
2022/01/14 06:32:18;;;;;;;69.60;37.60;;;0.90;82.80;;;;;;5033145;28;20048;-88
2022/01/14 06:34:44;;;;;;;60.65;36.60;;;0.90;82.80;;;;;;5032714;28;20046;-89
2022/01/14 06:37:15;;;;;;;55.95;36.25;;;0.90;82.80;;;;;;5033292;28;20080;-89
2022/01/14 06:39:42;;;;;;;64.03;38.05;;;0.80;82.80;;;;;;5032127;28;20407;-89
2022/01/14 06:42:09;;;;;;;59.97;37.55;;;0.90;82.90;;;;;;5032986;28;20053;-89
2022/01/14 06:44:36;;;;;;;63.13;37.38;;;0.80;82.90;;;;;;5032726;28;20045;-89
2022/01/14 06:47:04;;;;;;;63.40;40.33;;;0.90;82.90;;;;;;5032988;28;20053;-89
2022/01/14 06:49:31;;;;;;;70.68;40.78;;;0.90;82.90;;;;;;5032608;28;20051;-89
2022/01/14 06:51:58;;;;;;;62.15;38.38;;;0.80;82.90;;;;;;5032405;28;20467;-90
2022/01/14 06:54:25;;;;;;;67.57;39.92;;;0.80;82.90;;;;;;5034759;28;20486;-90
2022/01/14 06:56:52;;;;;;;66.32;39.42;;;0.80;82.90;;;;;;5035691;28;20414;-89
2022/01/14 06:59:19;;;;;;;64.35;39.40;;;0.80;82.90;;;;;;5068714;28;20053;-90
2022/01/14 07:01:46;;;;;;;66.00;39.15;;;0.80;82.90;;;;;;5037380;28;20037;-89
2022/01/14 07:04:13;;;;;;;65.13;39.80;;;0.80;82.90;;;;;;5036246;28;20107;-90
2022/01/14 07:06:41;;;;;;;60.75;37.83;;;0.80;82.90;;;;;;5035736;28;20056;-89
2022/01/14 07:09:08;;;;;;;67.25;40.40;;;0.80;82.90;;;;;;5036379;28;20065;-91
2022/01/14 07:11:37;;;;;;;66.80;40.45;;;0.80;82.90;;;;;;5036680;28;20047;-91
2022/01/14 07:14:05;;;;;;;63.55;40.65;;;0.80;82.90;;;;;;5036349;28;20069;-90
2022/01/14 07:16:35;;;;;;;68.57;41.75;;;0.80;82.90;;;;;;5037970;28;20056;-90
2022/01/14 07:19:03;;;;;;;67.47;41.92;;;0.80;82.90;;;;;;5035276;28;20053;-89
2022/01/14 07:21:34;;;;;;;68.22;41.10;;;0.80;82.90;;;;;;5036238;28;20050;-90
2022/01/14 07:24:03;;;;;;;68.72;41.35;;;0.80;82.90;;;;;;5036026;28;20489;-90
2022/01/14 07:26:31;;;;;;;65.78;39.83;;;0.70;82.90;;;;;;5035934;28;20042;-90
2022/01/14 07:28:58;;;;;;;59.42;39.95;;;0.70;82.90;;;;;;5036255;28;20406;-89
2022/01/14 07:31:25;;;;;;;63.10;39.63;;;0.70;82.90;;;;;;5029370;28;20529;-89
2022/01/14 07:33:53;;;;;;;56.28;37.78;;;0.70;82.90;;;;;;5035081;28;20077;-89
2022/01/14 07:36:20;;;;;;;61.38;38.65;;;0.70;82.90;;;;;;5035057;28;20486;-89
2022/01/14 07:38:47;;;;;;;59.38;39.75;;;0.70;82.90;;;;;;5035128;28;20124;-90
2022/01/14 07:41:14;;;;;;;57.65;39.40;;;0.70;82.90;;;;;;5035625;28;20539;-89
2022/01/14 07:43:46;;;;;;;57.97;39.67;;;0.70;82.90;;;;;;5067181;28;20429;-89
2022/01/14 07:46:14;;;;;;;59.88;38.83;;;0.70;82.90;;;;;;5035377;28;20136;-89
2022/01/14 07:48:41;;;;;;;54.28;38.17;;;0.70;82.90;;;;;;5034555;28;20041;-89
2022/01/14 07:51:09;;;;;;;56.03;37.90;;;0.70;82.90;;;;;;5035146;28;20093;-90
2022/01/14 07:53:37;;;;;;;61.75;39.65;;;0.70;82.90;;;;;;5035209;28;20041;-90
2022/01/14 07:56:07;;;;;;;61.17;39.42;;;0.60;82.90;;;;;;5035141;28;20046;-90
2022/01/14 07:58:34;;;;;;;62.22;39.80;;;0.70;82.90;;;;;;5035049;28;20050;-91
2022/01/14 08:01:01;;;;;;;64.30;40.20;;;0.70;82.90;;;;;;5033808;28;20057;-92
2022/01/14 08:03:28;;;;;;;64.88;40.90;;;0.70;82.90;;;;;;5037384;28;20464;-91
2022/01/14 08:05:57;;;;;;;65.80;41.70;;;0.60;82.90;;;;;;5036726;28;20045;-90
2022/01/14 08:08:24;;;;;;;64.30;40.58;;;0.60;82.90;;;;;;5034969;28;20084;-90
2022/01/14 08:10:52;;;;;;;72.22;44.28;;;0.60;82.90;;;;;;5035103;28;20049;-89
2022/01/14 08:13:19;;;;;;;61.65;40.25;;;0.60;82.90;;;;;;5034717;28;20075;-89
2022/01/14 08:15:47;;;;;;;65.88;43.42;;;0.60;82.80;;;;;;5034950;28;20053;-90
2022/01/14 08:18:14;;;;;;;65.97;41.22;;;0.60;82.80;;;;;;5034931;28;20072;-89
2022/01/14 08:20:41;;;;;;;63.63;41.65;;;0.60;82.80;;;;;;5035849;28;20055;-89
2022/01/14 08:23:09;;;;;;;61.08;39.28;;;0.60;82.90;;;;;;5034761;28;20168;-89
2022/01/14 08:25:36;;;;;;;62.78;40.22;;;0.60;82.90;;;;;;5034735;28;20081;-91
2022/01/14 08:28:03;;;;;;;66.88;41.30;;;0.60;82.90;;;;;;5033630;28;20049;-90
2022/01/14 08:30:30;;;;;;;65.20;40.38;;;0.60;82.90;;;;;;5034187;28;20421;-92
2022/01/14 08:32:57;;;;;;;65.22;40.35;;;0.60;82.90;;;;;;5036284;28;20128;-90
2022/01/14 08:35:24;;;;;;;62.90;39.65;;;0.60;82.90;;;;;;5034307;28;20038;-90
2022/01/14 08:37:51;;;;;;;64.35;39.30;;;0.60;82.90;;;;;;5034582;28;20042;-89
2022/01/14 08:40:18;;;;;;;61.13;39.88;;;0.60;82.90;;;;;;5034414;28;20086;-90
2022/01/14 08:42:51;;;;;;;54.17;36.85;;;0.60;82.90;;;;;;5033379;28;20045;-90
2022/01/14 08:45:21;;;;;;;62.58;38.80;;;0.60;82.90;;;;;;5034290;28;20056;-89
2022/01/14 08:47:53;;;;;;;57.97;39.38;;;0.60;82.90;;;;;;5034387;28;20063;-89
2022/01/14 08:50:26;;;;;;;62.83;40.88;;;0.60;82.90;;;;;;5033918;28;20053;-90
2022/01/14 08:52:53;;;;;;;58.83;39.83;;;0.60;82.90;;;;;;5038780;28;20053;-90
2022/01/14 08:55:22;;;;;;;60.30;38.67;;;0.60;83.00;;;;;;5035286;28;20060;-89
2022/01/14 08:57:50;;;;;;;55.08;38.20;;;0.60;83.00;;;;;;5031965;28;20528;-88
2022/01/14 09:00:19;;;;;;;52.00;35.95;;;0.60;83.00;;;;;;5033867;28;20425;-89
2022/01/14 09:02:50;;;;;;;60.92;38.20;;;0.70;83.00;;;;;;5033600;28;20523;-89
2022/01/14 09:05:18;;;;;;;62.95;40.60;;;0.70;83.10;;;;;;5033710;28;20053;-90
2022/01/14 09:07:45;;;;;;;55.35;38.33;;;0.70;83.10;;;;;;5034066;28;20408;-91
2022/01/14 09:10:12;;;;;;;60.85;38.85;;;0.70;83.10;;;;;;5033559;28;20059;-90
2022/01/14 09:12:40;;;;;;;53.42;36.22;;;0.70;83.10;;;;;;5030671;28;20049;-89
2022/01/14 09:15:09;;;;;;;57.85;38.63;;;0.70;83.20;;;;;;5032260;28;20056;-87
2022/01/14 09:17:37;;;;;;;54.17;37.33;;;0.70;83.20;;;;;;5032876;28;20045;-89
2022/01/14 09:20:05;;;;;;;56.92;38.80;;;0.80;83.20;;;;;;5033212;28;20045;-89
2022/01/14 09:22:35;;;;;;;57.20;38.35;;;0.80;83.20;;;;;;5033583;28;20517;-88
2022/01/14 09:25:04;;;;;;;54.63;39.72;;;0.80;83.20;;;;;;5032592;28;20072;-88
2022/01/14 09:27:33;;;;;;;50.47;36.42;;;0.80;83.20;;;;;;5033092;28;20544;-88
2022/01/14 09:30:04;;;;;;;54.58;37.08;;;0.80;83.30;;;;;;5033341;28;20136;-89
2022/01/14 09:32:31;;;;;;;51.92;36.90;;;0.90;83.30;;;;;;5034920;28;20263;-88
2022/01/14 09:35:02;;;;;;;50.15;36.95;;;0.90;83.40;;;;;;5033014;28;20056;-87
2022/01/14 09:37:30;;;;;;;51.15;37.08;;;0.90;83.40;;;;;;5017759;28;20049;-87
2022/01/14 09:39:57;;;;;;;56.58;36.83;;;0.90;83.40;;;;;;5028547;28;20053;-88
2022/01/14 09:42:24;;;;;;;52.38;37.20;;;0.90;83.40;;;;;;5034148;28;20041;-89
2022/01/14 09:44:51;;;;;;;56.50;37.03;;;1.00;83.50;;;;;;5033157;28;20050;-87
2022/01/14 09:47:20;;;;;;;54.60;37.35;;;1.00;83.50;;;;;;5032814;28;20041;-87
2022/01/14 09:49:48;;;;;;;53.58;37.60;;;1.00;83.50;;;;;;5034461;28;20045;-86
2022/01/14 09:52:17;;;;;;;50.85;37.05;;;1.00;83.60;;;;;;5033106;28;20049;-87
2022/01/14 09:54:45;;;;;;;52.03;37.15;;;1.10;83.60;;;;;;5032059;28;20053;-88
2022/01/14 09:57:16;;;;;;;55.28;37.17;;;1.20;83.70;;;;;;5032453;28;20394;-86
2022/01/14 09:59:44;;;;;;;56.97;38.15;;;1.20;83.70;;;;;;5032739;28;20048;-87
2022/01/14 10:02:32;;;;;;;56.25;38.58;;;1.30;83.80;;;;;;5032622;28;20053;-87
2022/01/14 10:04:59;;;;;;;58.05;39.90;;;1.40;84.00;;;;;;5031755;28;20041;-87
2022/01/14 10:07:28;;;;;;;71.07;45.92;;;1.50;84.10;;;;;;5032768;28;20059;-87
2022/01/14 10:10:00;;;;;;;70.65;46.55;;;1.70;84.20;;;;;;5027711;28;20442;-88
2022/01/14 10:12:33;;;;;;;75.75;50.67;;;1.90;84.30;;;;;;5032094;28;20422;-87
2022/01/14 10:15:08;;;;;;;77.18;49.15;;;2.00;84.40;;;;;;5033060;28;20045;-88
2022/01/14 10:17:42;;;;;;;79.55;50.88;;;2.30;84.50;;;;;;5032969;28;20048;-85
2022/01/14 10:20:14;;;;;;;78.32;52.22;;;2.50;84.50;;;;;;5032970;28;20049;-88
2022/01/14 10:22:48;;;;;;;85.68;50.75;;;2.80;84.50;;;;;;5033043;28;20056;-87
2022/01/14 10:25:18;;;;;;;86.07;52.47;;;3.00;84.40;;;;;;5033167;28;20052;-86
2022/01/14 10:27:51;;;;;;;81.68;52.60;;;3.20;84.30;;;;;;5033540;28;20517;-86
2022/01/14 10:30:28;;;;;;;82.70;53.20;;;3.50;84.30;;;;;;5037073;28;20065;-86
2022/01/14 10:33:07;;;;;;;83.18;50.00;;;3.80;84.20;;;;;;5037058;28;20060;-85
2022/01/14 10:35:42;;;;;;;87.30;50.67;;;4.00;84.10;;;;;;5036930;28;20520;-85
2022/01/14 10:38:11;;;;;;;71.95;49.05;;;4.30;84.10;;;;;;5036633;28;20053;-85
2022/01/14 10:40:50;;;;;;;85.00;52.60;;;4.50;84.00;;;;;;5036564;28;20051;-85
2022/01/14 10:43:23;;;;;;;88.10;52.83;;;4.70;83.90;;;;;;5036822;28;20049;-85
2022/01/14 10:45:53;;;;;;;98.53;55.28;;;4.90;83.80;;;;;;5035923;28;20045;-84
2022/01/14 10:48:32;;;;;;;98.32;53.88;;;5.20;83.60;;;;;;5036783;28;20076;-85
2022/01/14 10:51:02;;;;;;;92.03;50.03;;;5.40;83.50;;;;;;5036471;28;20449;-85
2022/01/14 10:53:41;;;;;;;85.00;46.58;;;5.60;83.40;;;;;;5036616;28;20049;-84
2022/01/14 10:56:10;;;;;;;71.47;41.88;;;5.80;83.20;;;;;;5036192;28;20061;-84
2022/01/14 10:58:40;;;;;;;57.20;36.47;;;5.90;83.10;;;;;;5035278;28;20045;-84
2022/01/14 11:01:14;;;;;;;58.25;38.10;;;6.10;82.90;;;;;;5035187;28;20124;-84
2022/01/14 11:03:56;;;;;;;51.45;35.72;;;6.30;82.70;;;;;;5032709;28;20048;-84
2022/01/14 11:06:32;;;;;;;60.28;34.67;;;6.40;82.60;;;;;;5035829;28;20132;-84
2022/01/14 11:09:14;;;;;;;49.97;34.33;;;6.60;82.40;;;;;;5034927;28;20049;-84
2022/01/14 11:11:44;;;;;;;50.80;34.80;;;6.70;82.20;;;;;;5035527;28;20071;-85
2022/01/14 11:14:13;;;;;;;45.28;33.05;;;6.90;82.00;;;;;;5035703;28;20565;-85
2022/01/14 11:16:42;;;;;;;44.20;32.90;;;7.00;81.80;;;;;;5035973;28;20053;-85
2022/01/14 11:19:10;;;;;;;46.30;32.05;;;7.10;81.60;;;;;;5035333;28;20136;-85
2022/01/14 11:24:26;;;;;;;43.45;31.95;;;7.30;81.20;;;;;;5035741;28;20465;-85
2022/01/14 11:27:11;;;;;;;47.30;32.42;;;7.40;81.00;;;;;;5036045;28;20056;-85
2022/01/14 11:29:42;;;;;;;42.83;30.88;;;7.40;80.90;;;;;;5035925;28;20052;-85
2022/01/14 11:32:10;;;;;;;47.17;31.33;;;7.50;80.80;;;;;;5067859;28;20060;-85
2022/01/14 11:34:43;;;;;;;47.17;32.67;;;7.50;80.70;;;;;;5035849;28;20064;-85
2022/01/14 11:37:30;;;;;;;45.42;31.08;;;7.60;80.60;;;;;;5035370;28;20054;-85
2022/01/14 11:40:05;;;;;;;43.95;30.58;;;7.60;80.50;;;;;;5033925;28;20045;-84
2022/01/14 11:42:40;;;;;;;50.97;29.77;;;7.70;80.40;;;;;;5036101;28;20520;-84
2022/01/14 11:45:09;;;;;;;47.72;31.23;;;7.70;80.40;;;;;;5067587;28;20498;-86
2022/01/14 11:47:39;;;;;;;45.88;28.90;;;7.70;80.30;;;;;;5035514;28;20045;-87
2022/01/14 11:50:19;;;;;;;41.13;30.45;;;7.80;80.30;;;;;;5067250;28;20498;-85
2022/01/14 11:52:49;;;;;;;39.35;28.92;;;7.80;80.30;;;;;;5035298;28;20050;-86
2022/01/14 11:55:22;;;;;;;43.22;28.58;;;7.80;80.20;;;;;;5035631;28;20128;-83
2022/01/14 11:57:58;;;;;;;41.92;29.20;;;7.90;80.30;;;;;;5034558;28;20546;-83
2022/01/14 12:00:27;;;;;;;41.75;26.98;;;7.90;80.20;;;;;;5035523;28;20045;-83
2022/01/14 12:03:07;;;;;;;34.10;25.27;;;7.90;80.20;;;;;;5035357;28;20046;-83
2022/01/14 12:05:37;;;;;;;38.83;26.27;;;7.90;80.10;;;;;;5067141;28;20144;-83
2022/01/14 12:08:08;;;;;;;41.17;25.77;;;7.90;80.10;;;;;;5033393;28;20076;-83
2022/01/14 12:10:54;;;;;;;35.30;24.13;;;7.90;80.00;;;;;;5065437;28;20046;-83
2022/01/14 12:13:49;;;;;;;35.47;25.42;;;7.90;80.00;;;;;;5034286;28;20128;-83
2022/01/14 12:19:03;;;;;;;32.67;23.88;;;7.90;79.90;;;;;;5030383;28;20465;-83
2022/01/14 12:21:45;;;;;;;31.15;23.27;;;7.90;79.90;;;;;;5034737;28;20498;-82
2022/01/14 12:24:15;;;;;;;31.88;24.27;;;7.90;79.80;;;;;;5035001;28;20077;-83
2022/01/14 12:26:58;;;;;;;34.03;23.60;;;7.90;79.80;;;;;;5034684;28;20049;-83
2022/01/14 12:29:51;;;;;;;31.60;22.48;;;7.90;79.70;;;;;;5034849;28;20045;-83
2022/01/14 12:32:39;;;;;;;32.58;23.23;;;7.90;79.60;;;;;;5034675;28;20103;-83
2022/01/14 12:35:19;;;;;;;29.63;23.05;;;7.90;79.40;;;;;;5034570;28;20491;-83
2022/01/14 12:37:55;;;;;;;30.60;23.20;;;8.00;79.30;;;;;;5034416;28;20087;-83
2022/01/14 12:40:36;;;;;;;27.98;20.70;;;8.00;79.20;;;;;;5034763;28;20053;-84
2022/01/14 12:43:09;;;;;;;33.30;21.35;;;8.00;79.00;;;;;;5030536;28;20128;-83
2022/01/14 12:45:52;;;;;;;32.67;21.35;;;8.00;78.90;;;;;;5035506;28;20426;-85
2022/01/14 12:48:40;;;;;;;31.77;22.70;;;8.10;78.90;;;;;;5034324;28;20111;-83
2022/01/14 12:51:17;;;;;;;30.80;21.33;;;8.20;78.80;;;;;;5033951;28;20081;-83
2022/01/14 12:53:56;;;;;;;30.83;21.25;;;8.20;78.70;;;;;;5034567;28;20493;-83
2022/01/14 12:56:28;;;;;;;29.27;20.65;;;8.20;78.50;;;;;;5034306;28;20167;-83
2022/01/14 12:59:02;;;;;;;24.20;19.75;;;8.30;78.50;;;;;;5033105;28;20041;-83
2022/01/14 13:01:47;;;;;;;25.77;20.20;;;8.30;78.30;;;;;;5018913;28;20068;-83
2022/01/14 13:04:16;;;;;;;30.35;19.20;;;8.40;78.20;;;;;;5032518;28;20053;-83
2022/01/14 13:06:53;;;;;;;28.15;18.48;;;8.40;78.10;;;;;;5031687;28;20092;-83
2022/01/14 13:09:28;;;;;;;27.23;18.92;;;8.40;78.00;;;;;;5032696;28;20152;-83
2022/01/14 13:11:59;;;;;;;25.23;18.23;;;8.40;77.90;;;;;;5033865;28;20041;-83
2022/01/14 13:14:45;;;;;;;26.88;17.30;;;8.60;77.80;;;;;;5033741;28;20042;-83
2022/01/14 13:17:26;;;;;;;31.35;16.80;;;8.60;77.70;;;;;;5033928;28;20080;-83
2022/01/14 13:20:20;;;;;;;23.75;17.13;;;8.70;77.60;;;;;;5033685;28;20524;-83
2022/01/14 13:22:49;;;;;;;25.38;17.13;;;8.70;77.40;;;;;;5019704;28;20049;-83
2022/01/14 13:25:19;;;;;;;24.20;17.40;;;8.80;77.30;;;;;;5033802;28;20056;-83